sensor_id;sensor_type;location;lat;lon;timestamp;pressure;altitude;pressure_sealevel;temperature;humidity
70976;BME280;58635;51.198;6.010;2023-01-15T00:00:41;99839.59;;;11.64;57.98
70976;BME280;58635;51.198;6.010;2023-01-15T00:03:07;99827.66;;;11.63;58.20
70976;BME280;58635;51.198;6.010;2023-01-15T00:05:35;99834.88;;;11.61;58.22
70976;BME280;58635;51.198;6.010;2023-01-15T00:08:01;99838.69;;;11.58;58.46
70976;BME280;58635;51.198;6.010;2023-01-15T00:10:27;99834.28;;;11.59;58.42
70976;BME280;58635;51.198;6.010;2023-01-15T00:12:52;99839.91;;;11.56;57.71
70976;BME280;58635;51.198;6.010;2023-01-15T00:15:17;99844.84;;;11.46;57.97
70976;BME280;58635;51.198;6.010;2023-01-15T00:17:43;99827.63;;;11.39;58.04
70976;BME280;58635;51.198;6.010;2023-01-15T00:20:09;99824.47;;;11.37;57.79
70976;BME280;58635;51.198;6.010;2023-01-15T00:22:34;99835.81;;;11.36;57.94
70976;BME280;58635;51.198;6.010;2023-01-15T00:25:00;99833.09;;;11.31;57.71
70976;BME280;58635;51.198;6.010;2023-01-15T00:27:44;99810.91;;;11.24;58.37
70976;BME280;58635;51.198;6.010;2023-01-15T00:30:12;99804.81;;;11.18;58.31
70976;BME280;58635;51.198;6.010;2023-01-15T00:32:43;99806.84;;;11.16;58.74
70976;BME280;58635;51.198;6.010;2023-01-15T00:35:13;99812.03;;;11.16;58.97
70976;BME280;58635;51.198;6.010;2023-01-15T00:37:40;99803.88;;;11.12;59.22
70976;BME280;58635;51.198;6.010;2023-01-15T00:40:05;99804.34;;;11.09;58.96
70976;BME280;58635;51.198;6.010;2023-01-15T00:42:31;99802.19;;;11.06;58.90
70976;BME280;58635;51.198;6.010;2023-01-15T00:44:56;99799.84;;;11.05;58.81
70976;BME280;58635;51.198;6.010;2023-01-15T00:47:22;99804.66;;;11.01;58.60
70976;BME280;58635;51.198;6.010;2023-01-15T00:49:47;99807.44;;;11.00;59.08
70976;BME280;58635;51.198;6.010;2023-01-15T00:52:14;99800.84;;;11.04;58.84
70976;BME280;58635;51.198;6.010;2023-01-15T00:54:40;99803.44;;;11.04;59.02
70976;BME280;58635;51.198;6.010;2023-01-15T00:57:05;99815.94;;;11.07;58.97
70976;BME280;58635;51.198;6.010;2023-01-15T00:59:31;99809.41;;;11.04;58.95
70976;BME280;58635;51.198;6.010;2023-01-15T01:01:56;99824.56;;;11.01;58.68
70976;BME280;58635;51.198;6.010;2023-01-15T01:04:21;99832.97;;;10.96;58.90
70976;BME280;58635;51.198;6.010;2023-01-15T01:06:47;99836.34;;;10.97;58.88
70976;BME280;58635;51.198;6.010;2023-01-15T01:09:13;99830.16;;;10.98;58.79
70976;BME280;58635;51.198;6.010;2023-01-15T01:11:39;99839.16;;;10.95;58.87
70976;BME280;58635;51.198;6.010;2023-01-15T01:14:04;99825.66;;;10.93;58.78
70976;BME280;58635;51.198;6.010;2023-01-15T01:16:36;99829.03;;;10.94;58.90
70976;BME280;58635;51.198;6.010;2023-01-15T01:19:07;99836.00;;;10.93;58.99
70976;BME280;58635;51.198;6.010;2023-01-15T01:21:35;99840.97;;;10.95;59.23
70976;BME280;58635;51.198;6.010;2023-01-15T01:24:01;99846.94;;;10.95;59.03
70976;BME280;58635;51.198;6.010;2023-01-15T01:26:28;99846.47;;;10.98;58.84
70976;BME280;58635;51.198;6.010;2023-01-15T01:28:54;99845.69;;;10.98;58.72
70976;BME280;58635;51.198;6.010;2023-01-15T01:31:20;99840.53;;;10.98;58.70
70976;BME280;58635;51.198;6.010;2023-01-15T01:33:50;99844.13;;;10.97;58.90
70976;BME280;58635;51.198;6.010;2023-01-15T01:36:16;99846.72;;;10.97;59.04
70976;BME280;58635;51.198;6.010;2023-01-15T01:38:42;99850.53;;;10.94;58.92
70976;BME280;58635;51.198;6.010;2023-01-15T01:41:08;99843.00;;;10.93;58.99
70976;BME280;58635;51.198;6.010;2023-01-15T01:43:51;99842.63;;;10.89;58.69
70976;BME280;58635;51.198;6.010;2023-01-15T01:46:16;99848.22;;;10.86;58.79
70976;BME280;58635;51.198;6.010;2023-01-15T01:48:43;99849.47;;;10.83;58.64
70976;BME280;58635;51.198;6.010;2023-01-15T01:51:09;99835.38;;;10.79;59.03
70976;BME280;58635;51.198;6.010;2023-01-15T01:53:36;99850.91;;;10.79;58.60
70976;BME280;58635;51.198;6.010;2023-01-15T01:56:02;99857.50;;;10.75;59.00
70976;BME280;58635;51.198;6.010;2023-01-15T01:58:30;99858.50;;;10.74;59.20
70976;BME280;58635;51.198;6.010;2023-01-15T02:00:58;99857.50;;;10.75;59.29
70976;BME280;58635;51.198;6.010;2023-01-15T02:03:29;99860.25;;;10.80;59.42
70976;BME280;58635;51.198;6.010;2023-01-15T02:05:57;99846.09;;;10.83;59.22
70976;BME280;58635;51.198;6.010;2023-01-15T02:08:23;99843.16;;;10.79;59.51
70976;BME280;58635;51.198;6.010;2023-01-15T02:10:52;99847.31;;;10.80;59.56
70976;BME280;58635;51.198;6.010;2023-01-15T02:16:15;99843.00;;;10.74;59.91
70976;BME280;58635;51.198;6.010;2023-01-15T02:21:32;99848.25;;;10.68;60.34
70976;BME280;58635;51.198;6.010;2023-01-15T02:24:11;99832.09;;;10.72;60.41
70976;BME280;58635;51.198;6.010;2023-01-15T02:32:34;99821.06;;;10.77;60.29
70976;BME280;58635;51.198;6.010;2023-01-15T02:35:07;99814.53;;;10.74;60.57
70976;BME280;58635;51.198;6.010;2023-01-15T02:37:41;99821.72;;;10.72;60.45
70976;BME280;58635;51.198;6.010;2023-01-15T02:40:09;99823.19;;;10.68;60.72
70976;BME280;58635;51.198;6.010;2023-01-15T02:42:35;99819.16;;;10.72;60.75
70976;BME280;58635;51.198;6.010;2023-01-15T02:45:02;99821.16;;;10.70;60.65
70976;BME280;58635;51.198;6.010;2023-01-15T02:47:33;99825.56;;;10.70;60.62
70976;BME280;58635;51.198;6.010;2023-01-15T02:50:03;99839.50;;;10.69;60.52
70976;BME280;58635;51.198;6.010;2023-01-15T02:52:36;99823.75;;;10.70;60.42
70976;BME280;58635;51.198;6.010;2023-01-15T02:55:17;99823.19;;;10.68;60.71
70976;BME280;58635;51.198;6.010;2023-01-15T02:57:46;99811.84;;;10.69;60.62
70976;BME280;58635;51.198;6.010;2023-01-15T03:00:13;99804.88;;;10.70;60.58
70976;BME280;58635;51.198;6.010;2023-01-15T03:02:48;99806.22;;;10.72;60.70
70976;BME280;58635;51.198;6.010;2023-01-15T03:05:26;99803.41;;;10.74;60.54
70976;BME280;58635;51.198;6.010;2023-01-15T03:07:55;99801.63;;;10.74;60.63
70976;BME280;58635;51.198;6.010;2023-01-15T03:10:37;99792.06;;;10.75;60.69
70976;BME280;58635;51.198;6.010;2023-01-15T03:13:10;99806.00;;;10.74;60.76
70976;BME280;58635;51.198;6.010;2023-01-15T03:16:01;99793.28;;;10.72;60.84
70976;BME280;58635;51.198;6.010;2023-01-15T03:19:08;99795.31;;;10.70;60.77
70976;BME280;58635;51.198;6.010;2023-01-15T03:21:51;99800.47;;;10.70;60.96
70976;BME280;58635;51.198;6.010;2023-01-15T03:24:24;99789.56;;;10.68;60.87
70976;BME280;58635;51.198;6.010;2023-01-15T03:26:52;99810.47;;;10.67;61.03
70976;BME280;58635;51.198;6.010;2023-01-15T03:29:18;99801.72;;;10.68;60.92
70976;BME280;58635;51.198;6.010;2023-01-15T03:31:44;99804.94;;;10.63;61.06
70976;BME280;58635;51.198;6.010;2023-01-15T03:34:10;99804.34;;;10.61;60.86
70976;BME280;58635;51.198;6.010;2023-01-15T03:36:36;99801.66;;;10.56;61.09
70976;BME280;58635;51.198;6.010;2023-01-15T03:39:02;99800.06;;;10.55;60.97
70976;BME280;58635;51.198;6.010;2023-01-15T03:55:21;99805.31;;;10.48;61.29
70976;BME280;58635;51.198;6.010;2023-01-15T03:58:04;99796.53;;;10.49;61.42
70976;BME280;58635;51.198;6.010;2023-01-15T04:00:37;99801.28;;;10.52;61.19
70976;BME280;58635;51.198;6.010;2023-01-15T04:03:06;99796.88;;;10.53;61.31
70976;BME280;58635;51.198;6.010;2023-01-15T04:05:34;99804.47;;;10.54;61.17
70976;BME280;58635;51.198;6.010;2023-01-15T04:08:02;99804.22;;;10.56;60.98
70976;BME280;58635;51.198;6.010;2023-01-15T04:10:28;99806.44;;;10.52;61.14
70976;BME280;58635;51.198;6.010;2023-01-15T04:12:53;99807.44;;;10.51;61.18
70976;BME280;58635;51.198;6.010;2023-01-15T04:15:18;99814.41;;;10.51;60.88
70976;BME280;58635;51.198;6.010;2023-01-15T04:17:44;99807.09;;;10.48;61.18
70976;BME280;58635;51.198;6.010;2023-01-15T04:20:10;99809.47;;;10.49;61.19
70976;BME280;58635;51.198;6.010;2023-01-15T04:22:35;99806.03;;;10.56;61.08
70976;BME280;58635;51.198;6.010;2023-01-15T04:25:02;99794.91;;;10.55;61.13
70976;BME280;58635;51.198;6.010;2023-01-15T04:27:27;99799.84;;;10.57;61.12
70976;BME280;58635;51.198;6.010;2023-01-15T04:29:53;99812.91;;;10.62;60.73
70976;BME280;58635;51.198;6.010;2023-01-15T04:32:18;99794.47;;;10.58;60.71
70976;BME280;58635;51.198;6.010;2023-01-15T04:34:44;99798.50;;;10.54;60.58
70976;BME280;58635;51.198;6.010;2023-01-15T05:41:05;99806.59;;;10.39;60.66
70976;BME280;58635;51.198;6.010;2023-01-15T05:43:50;99812.78;;;10.38;60.34
70976;BME280;58635;51.198;6.010;2023-01-15T05:46:16;99799.28;;;10.36;60.42
70976;BME280;58635;51.198;6.010;2023-01-15T05:48:41;99796.91;;;10.35;60.41
70976;BME280;58635;51.198;6.010;2023-01-15T05:51:07;99812.63;;;10.33;60.56
70976;BME280;58635;51.198;6.010;2023-01-15T05:53:32;99824.56;;;10.34;60.79
70976;BME280;58635;51.198;6.010;2023-01-15T05:56:03;99825.91;;;10.37;60.53
70976;BME280;58635;51.198;6.010;2023-01-15T05:58:29;99830.88;;;10.38;60.42
70976;BME280;58635;51.198;6.010;2023-01-15T06:00:54;99829.84;;;10.39;60.37
70976;BME280;58635;51.198;6.010;2023-01-15T06:03:24;99828.28;;;10.38;60.45
70976;BME280;58635;51.198;6.010;2023-01-15T06:05:53;99833.66;;;10.37;60.77
70976;BME280;58635;51.198;6.010;2023-01-15T06:08:19;99833.22;;;10.40;60.46
70976;BME280;58635;51.198;6.010;2023-01-15T06:10:45;99834.69;;;10.36;60.36
70976;BME280;58635;51.198;6.010;2023-01-15T06:13:11;99832.31;;;10.34;60.67
70976;BME280;58635;51.198;6.010;2023-01-15T06:15:37;99828.72;;;10.35;60.19
70976;BME280;58635;51.198;6.010;2023-01-15T06:18:02;99842.06;;;10.32;60.29
70976;BME280;58635;51.198;6.010;2023-01-15T06:20:28;99840.50;;;10.31;60.08
70976;BME280;58635;51.198;6.010;2023-01-15T06:22:53;99836.53;;;10.29;60.23
70976;BME280;58635;51.198;6.010;2023-01-15T06:25:19;99840.91;;;10.28;60.21
70976;BME280;58635;51.198;6.010;2023-01-15T06:27:44;99846.84;;;10.29;60.35
70976;BME280;58635;51.198;6.010;2023-01-15T06:30:11;99832.94;;;10.30;59.94
70976;BME280;58635;51.198;6.010;2023-01-15T06:32:36;99852.03;;;10.29;59.99
70976;BME280;58635;51.198;6.010;2023-01-15T06:35:02;99848.31;;;10.24;59.96
70976;BME280;58635;51.198;6.010;2023-01-15T06:37:27;99850.44;;;10.28;59.95
70976;BME280;58635;51.198;6.010;2023-01-15T06:39:52;99860.22;;;10.25;60.04
70976;BME280;58635;51.198;6.010;2023-01-15T06:42:18;99852.47;;;10.25;59.95
70976;BME280;58635;51.198;6.010;2023-01-15T06:45:02;99850.09;;;10.24;59.95
70976;BME280;58635;51.198;6.010;2023-01-15T06:47:46;99850.50;;;10.21;59.78
70976;BME280;58635;51.198;6.010;2023-01-15T06:50:12;99858.47;;;10.19;59.71
70976;BME280;58635;51.198;6.010;2023-01-15T06:52:37;99856.28;;;10.16;60.01
70976;BME280;58635;51.198;6.010;2023-01-15T06:55:03;99856.06;;;10.18;60.12
70976;BME280;58635;51.198;6.010;2023-01-15T06:57:28;99853.94;;;10.15;60.14
70976;BME280;58635;51.198;6.010;2023-01-15T06:59:54;99861.47;;;10.16;59.86
70976;BME280;58635;51.198;6.010;2023-01-15T07:02:19;99847.59;;;10.11;59.98
70976;BME280;58635;51.198;6.010;2023-01-15T07:04:46;99857.72;;;10.12;59.92
70976;BME280;58635;51.198;6.010;2023-01-15T07:07:13;99860.53;;;10.11;60.03
70976;BME280;58635;51.198;6.010;2023-01-15T07:09:39;99865.69;;;10.11;60.02
70976;BME280;58635;51.198;6.010;2023-01-15T07:12:05;99873.66;;;10.09;60.07
70976;BME280;58635;51.198;6.010;2023-01-15T07:14:30;99875.47;;;10.09;59.85
70976;BME280;58635;51.198;6.010;2023-01-15T07:16:57;99875.47;;;10.09;60.00
70976;BME280;58635;51.198;6.010;2023-01-15T07:19:23;99867.91;;;10.07;59.93
70976;BME280;58635;51.198;6.010;2023-01-15T07:21:48;99871.69;;;10.05;59.50
70976;BME280;58635;51.198;6.010;2023-01-15T07:24:14;99878.31;;;10.01;59.73
70976;BME280;58635;51.198;6.010;2023-01-15T07:26:40;99868.81;;;9.94;60.37
70976;BME280;58635;51.198;6.010;2023-01-15T07:29:06;99877.72;;;9.99;60.49
70976;BME280;58635;51.198;6.010;2023-01-15T07:31:31;99876.34;;;9.96;60.47
70976;BME280;58635;51.198;6.010;2023-01-15T07:33:57;99879.34;;;9.93;60.47
70976;BME280;58635;51.198;6.010;2023-01-15T07:36:23;99892.91;;;9.88;60.74
70976;BME280;58635;51.198;6.010;2023-01-15T07:38:48;99902.00;;;9.91;60.57
70976;BME280;58635;51.198;6.010;2023-01-15T07:41:14;99903.22;;;9.88;60.38
70976;BME280;58635;51.198;6.010;2023-01-15T07:43:58;99906.81;;;9.87;60.41
70976;BME280;58635;51.198;6.010;2023-01-15T07:46:43;99902.66;;;9.86;60.25
70976;BME280;58635;51.198;6.010;2023-01-15T07:49:26;99886.19;;;9.81;60.18
70976;BME280;58635;51.198;6.010;2023-01-15T07:52:14;99896.13;;;9.84;59.98
70976;BME280;58635;51.198;6.010;2023-01-15T07:54:40;99913.41;;;9.83;60.15
70976;BME280;58635;51.198;6.010;2023-01-15T07:57:06;99924.31;;;9.85;60.01
70976;BME280;58635;51.198;6.010;2023-01-15T07:59:32;99918.16;;;9.86;59.91
70976;BME280;58635;51.198;6.010;2023-01-15T08:01:58;99928.06;;;9.89;59.59
70976;BME280;58635;51.198;6.010;2023-01-15T08:04:24;99926.25;;;9.90;59.42
70976;BME280;58635;51.198;6.010;2023-01-15T08:06:49;99935.81;;;9.89;59.29
70976;BME280;58635;51.198;6.010;2023-01-15T08:09:15;99939.97;;;9.90;59.11
70976;BME280;58635;51.198;6.010;2023-01-15T08:11:40;99937.59;;;9.89;58.75
70976;BME280;58635;51.198;6.010;2023-01-15T08:14:23;99942.44;;;9.79;58.47
70976;BME280;58635;51.198;6.010;2023-01-15T08:17:07;99942.63;;;9.77;58.72
70976;BME280;58635;51.198;6.010;2023-01-15T08:19:33;99945.00;;;9.79;58.51
70976;BME280;58635;51.198;6.010;2023-01-15T08:21:59;99959.72;;;9.78;58.75
70976;BME280;58635;51.198;6.010;2023-01-15T08:24:26;99957.91;;;9.79;58.47
70976;BME280;58635;51.198;6.010;2023-01-15T08:26:51;99962.88;;;9.80;58.13
70976;BME280;58635;51.198;6.010;2023-01-15T08:29:17;99957.56;;;9.75;58.35
70976;BME280;58635;51.198;6.010;2023-01-15T08:31:43;99963.94;;;9.73;58.57
70976;BME280;58635;51.198;6.010;2023-01-15T08:34:09;99960.56;;;9.72;58.37
70976;BME280;58635;51.198;6.010;2023-01-15T08:36:35;99970.50;;;9.68;58.76
70976;BME280;58635;51.198;6.010;2023-01-15T08:39:00;99971.28;;;9.69;58.54
70976;BME280;58635;51.198;6.010;2023-01-15T08:41:26;99967.75;;;9.63;58.66
70976;BME280;58635;51.198;6.010;2023-01-15T08:43:51;99969.34;;;9.58;58.68
70976;BME280;58635;51.198;6.010;2023-01-15T08:46:16;99967.41;;;9.53;58.97
70976;BME280;58635;51.198;6.010;2023-01-15T08:48:42;99957.06;;;9.53;59.01
70976;BME280;58635;51.198;6.010;2023-01-15T08:51:09;99951.53;;;9.50;59.05
70976;BME280;58635;51.198;6.010;2023-01-15T08:53:36;99956.31;;;9.46;59.17
70976;BME280;58635;51.198;6.010;2023-01-15T08:56:02;99953.13;;;9.44;59.23
70976;BME280;58635;51.198;6.010;2023-01-15T08:58:30;99944.22;;;9.40;59.38
70976;BME280;58635;51.198;6.010;2023-01-15T09:00:56;99946.81;;;9.40;59.47
70976;BME280;58635;51.198;6.010;2023-01-15T09:03:27;99945.44;;;9.37;59.75
70976;BME280;58635;51.198;6.010;2023-01-15T09:05:53;99948.41;;;9.41;59.79
70976;BME280;58635;51.198;6.010;2023-01-15T09:08:18;99944.03;;;9.42;59.74
70976;BME280;58635;51.198;6.010;2023-01-15T09:10:43;99946.59;;;9.42;59.91
70976;BME280;58635;51.198;6.010;2023-01-15T09:13:09;99936.28;;;9.42;60.01
70976;BME280;58635;51.198;6.010;2023-01-15T09:15:34;99924.16;;;9.42;60.06
70976;BME280;58635;51.198;6.010;2023-01-15T09:17:59;99936.66;;;9.45;60.06
70976;BME280;58635;51.198;6.010;2023-01-15T09:20:25;99927.31;;;9.44;59.90
70976;BME280;58635;51.198;6.010;2023-01-15T09:22:50;99917.59;;;9.46;60.04
70976;BME280;58635;51.198;6.010;2023-01-15T09:25:16;99923.53;;;9.47;59.97
70976;BME280;58635;51.198;6.010;2023-01-15T09:27:44;99937.25;;;9.47;60.01
70976;BME280;58635;51.198;6.010;2023-01-15T09:30:15;99928.31;;;9.50;59.84
70976;BME280;58635;51.198;6.010;2023-01-15T09:32:40;99937.22;;;9.54;59.94
70976;BME280;58635;51.198;6.010;2023-01-15T09:35:06;99929.84;;;9.57;59.50
70976;BME280;58635;51.198;6.010;2023-01-15T09:37:32;99928.84;;;9.58;59.38
70976;BME280;58635;51.198;6.010;2023-01-15T09:39:57;99929.38;;;9.67;59.26
70976;BME280;58635;51.198;6.010;2023-01-15T09:45:16;99926.69;;;9.87;57.77
70976;BME280;58635;51.198;6.010;2023-01-15T09:47:53;99943.31;;;9.98;57.58
70976;BME280;58635;51.198;6.010;2023-01-15T09:56:01;99946.72;;;10.16;56.78
70976;BME280;58635;51.198;6.010;2023-01-15T09:58:38;99950.72;;;10.19;56.77
70976;BME280;58635;51.198;6.010;2023-01-15T10:01:05;99968.00;;;10.18;56.56
70976;BME280;58635;51.198;6.010;2023-01-15T10:03:35;99961.22;;;10.17;56.74
70976;BME280;58635;51.198;6.010;2023-01-15T10:09:13;99974.50;;;10.28;56.46
70976;BME280;58635;51.198;6.010;2023-01-15T10:11:50;99966.13;;;10.32;56.66
70976;BME280;58635;51.198;6.010;2023-01-15T10:14:42;99983.75;;;10.42;55.85
70976;BME280;58635;51.198;6.010;2023-01-15T10:17:24;99980.53;;;10.46;55.63
70976;BME280;58635;51.198;6.010;2023-01-15T10:19:51;99974.00;;;10.44;55.87
70976;BME280;58635;51.198;6.010;2023-01-15T10:22:38;99973.59;;;10.40;55.22
70976;BME280;58635;51.198;6.010;2023-01-15T10:25:15;99984.81;;;10.34;55.57
70976;BME280;58635;51.198;6.010;2023-01-15T10:27:45;99980.06;;;10.31;55.25
70976;BME280;58635;51.198;6.010;2023-01-15T10:32:43;99991.34;;;10.37;55.16
70976;BME280;58635;51.198;6.010;2023-01-15T10:35:29;99996.28;;;10.38;54.91
70976;BME280;58635;51.198;6.010;2023-01-15T10:38:45;99991.88;;;10.45;54.83
70976;BME280;58635;51.198;6.010;2023-01-15T10:42:25;99996.41;;;10.50;54.73
70976;BME280;58635;51.198;6.010;2023-01-15T10:46:36;99988.59;;;10.57;54.12
70976;BME280;58635;51.198;6.010;2023-01-15T10:49:11;99979.63;;;10.59;54.12
70976;BME280;58635;51.198;6.010;2023-01-15T10:54:31;100004.00;;;10.70;53.44
70976;BME280;58635;51.198;6.010;2023-01-15T10:57:13;99986.69;;;10.70;53.29
70976;BME280;58635;51.198;6.010;2023-01-15T10:59:53;99996.81;;;10.72;53.40
70976;BME280;58635;51.198;6.010;2023-01-15T11:02:27;99975.91;;;10.73;53.39
70976;BME280;58635;51.198;6.010;2023-01-15T11:04:54;99996.59;;;10.73;53.04
70976;BME280;58635;51.198;6.010;2023-01-15T11:07:41;100008.38;;;10.69;52.39
70976;BME280;58635;51.198;6.010;2023-01-15T11:10:10;99989.91;;;10.66;52.52
70976;BME280;58635;51.198;6.010;2023-01-15T11:12:47;99986.13;;;10.68;53.05
70976;BME280;58635;51.198;6.010;2023-01-15T11:15:32;99988.06;;;10.73;53.26
70976;BME280;58635;51.198;6.010;2023-01-15T11:18:24;99992.16;;;10.80;53.15
70976;BME280;58635;51.198;6.010;2023-01-15T11:21:12;99989.50;;;10.87;52.83
70976;BME280;58635;51.198;6.010;2023-01-15T11:23:39;99992.31;;;10.86;52.50
70976;BME280;58635;51.198;6.010;2023-01-15T11:26:04;99978.22;;;10.81;52.30
70976;BME280;58635;51.198;6.010;2023-01-15T11:28:37;99985.19;;;10.81;52.84
70976;BME280;58635;51.198;6.010;2023-01-15T11:31:08;99969.25;;;10.84;52.87
70976;BME280;58635;51.198;6.010;2023-01-15T11:33:34;99969.25;;;10.84;52.64
70976;BME280;58635;51.198;6.010;2023-01-15T11:36:06;99963.50;;;10.82;52.64
70976;BME280;58635;51.198;6.010;2023-01-15T11:38:46;99974.50;;;10.77;52.16
70976;BME280;58635;51.198;6.010;2023-01-15T11:43:57;99972.09;;;10.76;52.53
70976;BME280;58635;51.198;6.010;2023-01-15T11:46:44;99970.09;;;10.78;52.19
70976;BME280;58635;51.198;6.010;2023-01-15T11:49:29;99974.09;;;10.74;52.18
70976;BME280;58635;51.198;6.010;2023-01-15T11:52:19;99973.75;;;10.70;52.73
70976;BME280;58635;51.198;6.010;2023-01-15T11:54:50;99971.09;;;10.77;52.86
70976;BME280;58635;51.198;6.010;2023-01-15T11:57:32;99964.94;;;10.78;52.47
70976;BME280;58635;51.198;6.010;2023-01-15T12:00:00;99984.41;;;10.80;52.15
70976;BME280;58635;51.198;6.010;2023-01-15T12:02:34;99977.66;;;10.79;52.27
70976;BME280;58635;51.198;6.010;2023-01-15T12:05:20;99977.28;;;10.76;52.20
70976;BME280;58635;51.198;6.010;2023-01-15T12:07:55;99984.25;;;10.75;52.09
70976;BME280;58635;51.198;6.010;2023-01-15T12:13:43;99970.72;;;10.73;52.24
70976;BME280;58635;51.198;6.010;2023-01-15T12:27:18;99964.50;;;10.81;51.91
70976;BME280;58635;51.198;6.010;2023-01-15T12:30:02;99952.78;;;10.78;51.69
70976;BME280;58635;51.198;6.010;2023-01-15T12:32:36;99967.09;;;10.81;52.08
70976;BME280;58635;51.198;6.010;2023-01-15T12:37:55;99975.72;;;10.93;51.86
70976;BME280;58635;51.198;6.010;2023-01-15T12:40:56;99973.97;;;10.87;51.68
70976;BME280;58635;51.198;6.010;2023-01-15T12:43:32;99978.78;;;10.83;51.94
70976;BME280;58635;51.198;6.010;2023-01-15T12:46:23;99972.84;;;10.83;51.97
70976;BME280;58635;51.198;6.010;2023-01-15T12:48:56;99976.78;;;10.86;51.83
70976;BME280;58635;51.198;6.010;2023-01-15T12:51:38;99976.34;;;10.89;52.13
70976;BME280;58635;51.198;6.010;2023-01-15T12:54:10;99974.94;;;10.93;52.03
70976;BME280;58635;51.198;6.010;2023-01-15T12:56:49;99984.63;;;10.97;51.84
70976;BME280;58635;51.198;6.010;2023-01-15T13:02:20;99965.00;;;11.08;51.83
70976;BME280;58635;51.198;6.010;2023-01-15T13:04:58;99953.00;;;11.13;51.84
70976;BME280;58635;51.198;6.010;2023-01-15T13:10:27;99975.66;;;11.18;51.50
70976;BME280;58635;51.198;6.010;2023-01-15T13:12:58;99965.63;;;11.22;51.42
70976;BME280;58635;51.198;6.010;2023-01-15T13:15:28;99977.78;;;11.21;50.98
70976;BME280;58635;51.198;6.010;2023-01-15T13:18:08;99971.25;;;11.19;50.42
70976;BME280;58635;51.198;6.010;2023-01-15T13:20:46;99989.25;;;11.13;50.54
70976;BME280;58635;51.198;6.010;2023-01-15T13:29:13;99983.84;;;10.97;50.99
70976;BME280;58635;51.198;6.010;2023-01-15T13:34:38;99989.56;;;10.99;51.65
70976;BME280;58635;51.198;6.010;2023-01-15T13:39:43;99988.00;;;10.98;51.19
70976;BME280;58635;51.198;6.010;2023-01-15T13:42:17;99995.75;;;10.98;51.02
70976;BME280;58635;51.198;6.010;2023-01-15T13:45:04;99989.78;;;10.97;51.08
70976;BME280;58635;51.198;6.010;2023-01-15T13:47:34;99992.03;;;10.94;50.87
70976;BME280;58635;51.198;6.010;2023-01-15T13:50:05;99985.28;;;10.93;51.21
70976;BME280;58635;51.198;6.010;2023-01-15T13:52:35;99993.88;;;10.87;50.95
70976;BME280;58635;51.198;6.010;2023-01-15T13:57:36;100002.66;;;10.86;51.45
70976;BME280;58635;51.198;6.010;2023-01-15T14:00:05;99977.78;;;10.84;51.10
70976;BME280;58635;51.198;6.010;2023-01-15T14:02:33;99976.22;;;10.83;51.64
70976;BME280;58635;51.198;6.010;2023-01-15T14:05:00;99985.34;;;10.86;51.62
70976;BME280;58635;51.198;6.010;2023-01-15T14:07:36;99985.72;;;10.90;51.67
70976;BME280;58635;51.198;6.010;2023-01-15T14:10:20;99991.47;;;10.92;51.39
70976;BME280;58635;51.198;6.010;2023-01-15T14:18:27;99985.34;;;10.86;51.74
70976;BME280;58635;51.198;6.010;2023-01-15T14:21:25;100001.44;;;10.88;51.39
70976;BME280;58635;51.198;6.010;2023-01-15T14:35:22;99998.19;;;10.74;51.68
70976;BME280;58635;51.198;6.010;2023-01-15T14:37:55;99988.63;;;10.75;51.35
70976;BME280;58635;51.198;6.010;2023-01-15T14:40:25;99999.75;;;10.75;51.62
70976;BME280;58635;51.198;6.010;2023-01-15T14:42:54;99993.78;;;10.75;51.64
70976;BME280;58635;51.198;6.010;2023-01-15T14:45:42;99998.75;;;10.76;51.77
70976;BME280;58635;51.198;6.010;2023-01-15T14:50:46;99992.59;;;10.77;51.69
70976;BME280;58635;51.198;6.010;2023-01-15T14:55:55;100000.94;;;10.79;51.63
70976;BME280;58635;51.198;6.010;2023-01-15T14:58:36;99993.00;;;10.74;51.53
70976;BME280;58635;51.198;6.010;2023-01-15T15:06:55;100003.47;;;10.61;52.13
70976;BME280;58635;51.198;6.010;2023-01-15T15:09:43;100012.44;;;10.59;52.75
70976;BME280;58635;51.198;6.010;2023-01-15T15:18:23;100012.91;;;10.49;53.97
70976;BME280;58635;51.198;6.010;2023-01-15T15:20:55;100008.41;;;10.44;54.41
70976;BME280;58635;51.198;6.010;2023-01-15T15:23:36;100013.97;;;10.41;54.27
70976;BME280;58635;51.198;6.010;2023-01-15T15:26:26;100029.53;;;10.35;54.50
70976;BME280;58635;51.198;6.010;2023-01-15T15:29:01;100021.03;;;10.28;55.12
70976;BME280;58635;51.198;6.010;2023-01-15T15:31:30;100027.22;;;10.20;55.68
70976;BME280;58635;51.198;6.010;2023-01-15T15:33:57;100025.66;;;10.19;56.08
70976;BME280;58635;51.198;6.010;2023-01-15T15:36:26;100020.47;;;10.19;56.34
70976;BME280;58635;51.198;6.010;2023-01-15T15:38:54;100027.03;;;10.15;56.61
70976;BME280;58635;51.198;6.010;2023-01-15T15:41:27;100024.88;;;10.12;56.98
70976;BME280;58635;51.198;6.010;2023-01-15T15:45:17;100011.81;;;10.07;56.95
70976;BME280;58635;51.198;6.010;2023-01-15T15:47:38;100011.41;;;10.03;56.84
70976;BME280;58635;51.198;6.010;2023-01-15T15:50:27;100007.84;;;10.04;56.70
70976;BME280;58635;51.198;6.010;2023-01-15T15:52:56;100014.00;;;10.03;56.78
70976;BME280;58635;51.198;6.010;2023-01-15T15:55:43;100012.22;;;10.04;56.45
70976;BME280;58635;51.198;6.010;2023-01-15T15:58:21;100007.25;;;10.02;56.46
70976;BME280;58635;51.198;6.010;2023-01-15T16:00:49;100002.31;;;10.01;56.48
70976;BME280;58635;51.198;6.010;2023-01-15T16:03:18;100015.19;;;10.07;56.24
70976;BME280;58635;51.198;6.010;2023-01-15T16:05:57;100002.28;;;10.07;55.91
70976;BME280;58635;51.198;6.010;2023-01-15T16:08:23;99999.28;;;10.04;55.94
70976;BME280;58635;51.198;6.010;2023-01-15T16:10:54;100014.41;;;10.07;55.88
70976;BME280;58635;51.198;6.010;2023-01-15T16:13:44;100005.03;;;10.06;55.61
70976;BME280;58635;51.198;6.010;2023-01-15T16:16:12;100002.50;;;9.99;55.58
70976;BME280;58635;51.198;6.010;2023-01-15T16:18:49;100007.09;;;9.97;55.32
70976;BME280;58635;51.198;6.010;2023-01-15T16:21:27;100007.47;;;10.01;55.25
70976;BME280;58635;51.198;6.010;2023-01-15T16:23:56;99996.34;;;10.00;55.21